sensor_id;sensor_type;location;lat;lon;timestamp;P1;durP1;ratioP1;P2;durP2;ratioP2
10315;SDS011;5203;48.976;8.306;2023-03-11T00:01:51;2.37;;;1.50;;
10315;SDS011;5203;48.976;8.306;2023-03-11T00:04:17;1.77;;;1.67;;
10315;SDS011;5203;48.976;8.306;2023-03-11T00:06:42;3.27;;;2.20;;
10315;SDS011;5203;48.976;8.306;2023-03-11T00:09:08;2.60;;;1.83;;
10315;SDS011;5203;48.976;8.306;2023-03-11T00:11:33;2.10;;;1.90;;
10315;SDS011;5203;48.976;8.306;2023-03-11T00:13:59;2.47;;;2.10;;
10315;SDS011;5203;48.976;8.306;2023-03-11T00:16:25;2.70;;;1.97;;
10315;SDS011;5203;48.976;8.306;2023-03-11T00:18:51;2.60;;;2.00;;
10315;SDS011;5203;48.976;8.306;2023-03-11T00:21:17;2.57;;;1.77;;
10315;SDS011;5203;48.976;8.306;2023-03-11T00:23:44;1.73;;;1.63;;
10315;SDS011;5203;48.976;8.306;2023-03-11T00:26:10;2.23;;;2.00;;
10315;SDS011;5203;48.976;8.306;2023-03-11T00:28:36;2.20;;;2.00;;
10315;SDS011;5203;48.976;8.306;2023-03-11T00:31:02;2.07;;;1.87;;
10315;SDS011;5203;48.976;8.306;2023-03-11T00:33:27;2.63;;;1.93;;
10315;SDS011;5203;48.976;8.306;2023-03-11T00:35:53;2.40;;;2.20;;
10315;SDS011;5203;48.976;8.306;2023-03-11T00:38:19;2.40;;;2.20;;
10315;SDS011;5203;48.976;8.306;2023-03-11T00:40:46;2.20;;;2.00;;
10315;SDS011;5203;48.976;8.306;2023-03-11T00:43:12;3.27;;;2.30;;
10315;SDS011;5203;48.976;8.306;2023-03-11T00:45:38;4.30;;;1.70;;
10315;SDS011;5203;48.976;8.306;2023-03-11T00:48:05;3.90;;;2.20;;
10315;SDS011;5203;48.976;8.306;2023-03-11T00:50:32;2.87;;;2.30;;
10315;SDS011;5203;48.976;8.306;2023-03-11T00:52:59;3.97;;;2.63;;
10315;SDS011;5203;48.976;8.306;2023-03-11T00:55:27;2.53;;;2.20;;
10315;SDS011;5203;48.976;8.306;2023-03-11T00:57:56;2.30;;;1.83;;
10315;SDS011;5203;48.976;8.306;2023-03-11T01:00:24;5.53;;;2.50;;
10315;SDS011;5203;48.976;8.306;2023-03-11T01:02:52;2.40;;;1.90;;
10315;SDS011;5203;48.976;8.306;2023-03-11T01:05:19;2.10;;;1.90;;
10315;SDS011;5203;48.976;8.306;2023-03-11T01:07:48;2.60;;;2.00;;
10315;SDS011;5203;48.976;8.306;2023-03-11T01:10:14;2.07;;;1.80;;
10315;SDS011;5203;48.976;8.306;2023-03-11T01:12:41;1.60;;;1.50;;
10315;SDS011;5203;48.976;8.306;2023-03-11T01:15:07;3.30;;;2.07;;
10315;SDS011;5203;48.976;8.306;2023-03-11T01:17:38;3.73;;;1.57;;
10315;SDS011;5203;48.976;8.306;2023-03-11T01:20:03;2.70;;;1.63;;
10315;SDS011;5203;48.976;8.306;2023-03-11T01:22:31;4.57;;;1.70;;
10315;SDS011;5203;48.976;8.306;2023-03-11T01:24:57;2.40;;;1.63;;
10315;SDS011;5203;48.976;8.306;2023-03-11T01:27:22;1.67;;;1.33;;
10315;SDS011;5203;48.976;8.306;2023-03-11T01:29:49;2.20;;;1.30;;
10315;SDS011;5203;48.976;8.306;2023-03-11T01:32:15;2.63;;;1.43;;
10315;SDS011;5203;48.976;8.306;2023-03-11T01:34:40;3.57;;;1.50;;
10315;SDS011;5203;48.976;8.306;2023-03-11T01:37:06;1.73;;;1.57;;
10315;SDS011;5203;48.976;8.306;2023-03-11T01:39:32;2.73;;;1.60;;
10315;SDS011;5203;48.976;8.306;2023-03-11T01:41:57;2.73;;;1.73;;
10315;SDS011;5203;48.976;8.306;2023-03-11T01:44:23;3.00;;;1.33;;
10315;SDS011;5203;48.976;8.306;2023-03-11T01:49:17;2.40;;;1.60;;
10315;SDS011;5203;48.976;8.306;2023-03-11T01:51:46;1.97;;;1.47;;
10315;SDS011;5203;48.976;8.306;2023-03-11T01:54:19;1.87;;;1.20;;
10315;SDS011;5203;48.976;8.306;2023-03-11T01:56:48;2.23;;;1.50;;
10315;SDS011;5203;48.976;8.306;2023-03-11T01:59:16;1.30;;;1.20;;
10315;SDS011;5203;48.976;8.306;2023-03-11T02:01:49;3.40;;;1.77;;
10315;SDS011;5203;48.976;8.306;2023-03-11T02:04:29;2.27;;;1.77;;
10315;SDS011;5203;48.976;8.306;2023-03-11T02:06:58;1.50;;;1.40;;
10315;SDS011;5203;48.976;8.306;2023-03-11T02:09:25;1.63;;;1.50;;
10315;SDS011;5203;48.976;8.306;2023-03-11T02:11:51;3.20;;;1.80;;
10315;SDS011;5203;48.976;8.306;2023-03-11T02:14:17;3.27;;;1.33;;
10315;SDS011;5203;48.976;8.306;2023-03-11T02:16:44;2.00;;;1.53;;
10315;SDS011;5203;48.976;8.306;2023-03-11T02:19:25;3.27;;;1.57;;
10315;SDS011;5203;48.976;8.306;2023-03-11T02:22:13;4.20;;;1.60;;
10315;SDS011;5203;48.976;8.306;2023-03-11T02:24:54;1.70;;;1.40;;
10315;SDS011;5203;48.976;8.306;2023-03-11T02:27:28;3.07;;;1.53;;
10315;SDS011;5203;48.976;8.306;2023-03-11T02:29:56;3.70;;;1.97;;
10315;SDS011;5203;48.976;8.306;2023-03-11T02:32:24;2.13;;;1.60;;
10315;SDS011;5203;48.976;8.306;2023-03-11T02:34:50;2.03;;;1.63;;
10315;SDS011;5203;48.976;8.306;2023-03-11T02:37:16;2.17;;;1.43;;
10315;SDS011;5203;48.976;8.306;2023-03-11T02:39:43;1.60;;;1.33;;
10315;SDS011;5203;48.976;8.306;2023-03-11T02:42:12;2.87;;;1.70;;
10315;SDS011;5203;48.976;8.306;2023-03-11T02:44:44;2.80;;;1.80;;
10315;SDS011;5203;48.976;8.306;2023-03-11T02:47:13;3.77;;;1.80;;
10315;SDS011;5203;48.976;8.306;2023-03-11T02:49:39;3.80;;;1.80;;
10315;SDS011;5203;48.976;8.306;2023-03-11T02:52:05;2.27;;;1.50;;
10315;SDS011;5203;48.976;8.306;2023-03-11T02:54:31;3.57;;;2.00;;
10315;SDS011;5203;48.976;8.306;2023-03-11T02:56:57;3.37;;;1.93;;
10315;SDS011;5203;48.976;8.306;2023-03-11T02:59:23;2.33;;;1.63;;
10315;SDS011;5203;48.976;8.306;2023-03-11T03:01:49;3.53;;;1.73;;
10315;SDS011;5203;48.976;8.306;2023-03-11T03:04:14;2.70;;;2.03;;
10315;SDS011;5203;48.976;8.306;2023-03-11T03:06:40;4.53;;;1.83;;
10315;SDS011;5203;48.976;8.306;2023-03-11T03:09:05;2.77;;;2.10;;
10315;SDS011;5203;48.976;8.306;2023-03-11T03:11:31;3.27;;;2.10;;
10315;SDS011;5203;48.976;8.306;2023-03-11T03:13:57;3.87;;;2.00;;
10315;SDS011;5203;48.976;8.306;2023-03-11T03:16:22;4.33;;;1.90;;
10315;SDS011;5203;48.976;8.306;2023-03-11T03:18:48;1.80;;;1.57;;
10315;SDS011;5203;48.976;8.306;2023-03-11T03:21:14;3.57;;;2.00;;
10315;SDS011;5203;48.976;8.306;2023-03-11T03:23:39;3.53;;;2.13;;
10315;SDS011;5203;48.976;8.306;2023-03-11T03:26:05;2.40;;;1.80;;
10315;SDS011;5203;48.976;8.306;2023-03-11T03:28:31;3.90;;;2.07;;
10315;SDS011;5203;48.976;8.306;2023-03-11T03:31:03;5.37;;;2.07;;
10315;SDS011;5203;48.976;8.306;2023-03-11T03:33:30;1.87;;;1.77;;
10315;SDS011;5203;48.976;8.306;2023-03-11T03:35:56;2.57;;;2.10;;
10315;SDS011;5203;48.976;8.306;2023-03-11T03:38:21;3.93;;;1.73;;
10315;SDS011;5203;48.976;8.306;2023-03-11T03:40:47;4.07;;;2.40;;
10315;SDS011;5203;48.976;8.306;2023-03-11T03:43:13;2.97;;;2.03;;
10315;SDS011;5203;48.976;8.306;2023-03-11T03:45:38;2.90;;;1.87;;
10315;SDS011;5203;48.976;8.306;2023-03-11T03:48:04;3.50;;;2.10;;
10315;SDS011;5203;48.976;8.306;2023-03-11T03:50:31;3.70;;;2.10;;
10315;SDS011;5203;48.976;8.306;2023-03-11T03:52:56;1.80;;;1.70;;
10315;SDS011;5203;48.976;8.306;2023-03-11T03:55:22;2.20;;;2.00;;
10315;SDS011;5203;48.976;8.306;2023-03-11T03:57:48;2.57;;;2.03;;
10315;SDS011;5203;48.976;8.306;2023-03-11T04:00:13;3.63;;;2.20;;
10315;SDS011;5203;48.976;8.306;2023-03-11T04:02:40;4.07;;;2.10;;
10315;SDS011;5203;48.976;8.306;2023-03-11T04:05:06;2.30;;;2.10;;
10315;SDS011;5203;48.976;8.306;2023-03-11T04:07:33;2.10;;;1.90;;
10315;SDS011;5203;48.976;8.306;2023-03-11T04:09:59;2.23;;;1.83;;
10315;SDS011;5203;48.976;8.306;2023-03-11T04:12:25;2.80;;;1.80;;
10315;SDS011;5203;48.976;8.306;2023-03-11T04:14:51;3.90;;;1.90;;
10315;SDS011;5203;48.976;8.306;2023-03-11T04:17:17;2.23;;;1.60;;
10315;SDS011;5203;48.976;8.306;2023-03-11T04:19:43;2.73;;;2.10;;
10315;SDS011;5203;48.976;8.306;2023-03-11T04:22:08;3.00;;;2.20;;
10315;SDS011;5203;48.976;8.306;2023-03-11T04:24:34;4.30;;;1.90;;
10315;SDS011;5203;48.976;8.306;2023-03-11T04:27:00;3.53;;;1.83;;
10315;SDS011;5203;48.976;8.306;2023-03-11T04:29:25;2.10;;;1.70;;
10315;SDS011;5203;48.976;8.306;2023-03-11T04:31:51;3.07;;;1.77;;
10315;SDS011;5203;48.976;8.306;2023-03-11T04:34:17;3.30;;;1.77;;
10315;SDS011;5203;48.976;8.306;2023-03-11T04:36:43;2.53;;;2.10;;
10315;SDS011;5203;48.976;8.306;2023-03-11T04:39:08;3.73;;;1.97;;
10315;SDS011;5203;48.976;8.306;2023-03-11T04:41:34;5.10;;;2.30;;
10315;SDS011;5203;48.976;8.306;2023-03-11T04:44:01;3.77;;;1.60;;
10315;SDS011;5203;48.976;8.306;2023-03-11T04:46:26;2.17;;;1.90;;
10315;SDS011;5203;48.976;8.306;2023-03-11T04:48:52;2.57;;;1.90;;
10315;SDS011;5203;48.976;8.306;2023-03-11T04:51:17;2.77;;;2.20;;
10315;SDS011;5203;48.976;8.306;2023-03-11T04:53:43;4.70;;;2.20;;
10315;SDS011;5203;48.976;8.306;2023-03-11T04:56:09;2.97;;;2.00;;
10315;SDS011;5203;48.976;8.306;2023-03-11T04:58:34;3.43;;;2.13;;
10315;SDS011;5203;48.976;8.306;2023-03-11T05:01:00;3.10;;;1.97;;
10315;SDS011;5203;48.976;8.306;2023-03-11T05:03:26;3.27;;;2.00;;
10315;SDS011;5203;48.976;8.306;2023-03-11T05:05:51;5.10;;;2.00;;
10315;SDS011;5203;48.976;8.306;2023-03-11T05:08:20;2.23;;;1.90;;
10315;SDS011;5203;48.976;8.306;2023-03-11T05:10:47;2.43;;;1.80;;
10315;SDS011;5203;48.976;8.306;2023-03-11T05:13:13;2.03;;;1.83;;
10315;SDS011;5203;48.976;8.306;2023-03-11T05:15:38;3.50;;;2.20;;
10315;SDS011;5203;48.976;8.306;2023-03-11T05:18:04;1.70;;;1.60;;
10315;SDS011;5203;48.976;8.306;2023-03-11T05:20:30;3.43;;;2.23;;
10315;SDS011;5203;48.976;8.306;2023-03-11T05:22:56;3.43;;;2.00;;
10315;SDS011;5203;48.976;8.306;2023-03-11T05:25:22;2.93;;;2.03;;
10315;SDS011;5203;48.976;8.306;2023-03-11T05:27:49;3.87;;;1.80;;
10315;SDS011;5203;48.976;8.306;2023-03-11T05:30:15;5.50;;;1.90;;
10315;SDS011;5203;48.976;8.306;2023-03-11T05:32:40;4.57;;;2.07;;
10315;SDS011;5203;48.976;8.306;2023-03-11T05:35:06;2.33;;;1.67;;
10315;SDS011;5203;48.976;8.306;2023-03-11T05:37:32;3.07;;;1.80;;
10315;SDS011;5203;48.976;8.306;2023-03-11T05:39:59;3.37;;;2.07;;
10315;SDS011;5203;48.976;8.306;2023-03-11T05:42:25;5.80;;;2.30;;
10315;SDS011;5203;48.976;8.306;2023-03-11T05:44:50;2.97;;;1.87;;
10315;SDS011;5203;48.976;8.306;2023-03-11T05:47:16;3.03;;;1.90;;
10315;SDS011;5203;48.976;8.306;2023-03-11T05:49:42;2.70;;;1.87;;
10315;SDS011;5203;48.976;8.306;2023-03-11T05:52:08;4.47;;;2.00;;
10315;SDS011;5203;48.976;8.306;2023-03-11T05:54:33;3.63;;;2.10;;
10315;SDS011;5203;48.976;8.306;2023-03-11T05:56:59;4.73;;;2.20;;
10315;SDS011;5203;48.976;8.306;2023-03-11T05:59:25;3.93;;;2.00;;
10315;SDS011;5203;48.976;8.306;2023-03-11T06:01:50;5.10;;;3.20;;
10315;SDS011;5203;48.976;8.306;2023-03-11T06:04:17;3.33;;;2.60;;
10315;SDS011;5203;48.976;8.306;2023-03-11T06:06:43;3.90;;;2.77;;
10315;SDS011;5203;48.976;8.306;2023-03-11T06:09:12;3.37;;;2.60;;
10315;SDS011;5203;48.976;8.306;2023-03-11T06:11:38;3.77;;;3.27;;
10315;SDS011;5203;48.976;8.306;2023-03-11T06:14:04;4.03;;;3.30;;
10315;SDS011;5203;48.976;8.306;2023-03-11T06:16:29;4.00;;;3.07;;
10315;SDS011;5203;48.976;8.306;2023-03-11T06:18:55;4.17;;;2.50;;
10315;SDS011;5203;48.976;8.306;2023-03-11T06:21:21;4.63;;;2.87;;
10315;SDS011;5203;48.976;8.306;2023-03-11T06:23:49;3.47;;;2.27;;
10315;SDS011;5203;48.976;8.306;2023-03-11T06:26:18;3.03;;;2.50;;
10315;SDS011;5203;48.976;8.306;2023-03-11T06:28:45;4.37;;;2.27;;
10315;SDS011;5203;48.976;8.306;2023-03-11T06:31:19;3.30;;;2.70;;
10315;SDS011;5203;48.976;8.306;2023-03-11T06:33:49;4.97;;;2.70;;
10315;SDS011;5203;48.976;8.306;2023-03-11T06:36:18;4.03;;;3.00;;
10315;SDS011;5203;48.976;8.306;2023-03-11T06:38:44;5.23;;;4.03;;
10315;SDS011;5203;48.976;8.306;2023-03-11T06:41:13;6.70;;;4.03;;
10315;SDS011;5203;48.976;8.306;2023-03-11T06:43:38;7.10;;;3.70;;
10315;SDS011;5203;48.976;8.306;2023-03-11T06:46:11;5.27;;;3.60;;
10315;SDS011;5203;48.976;8.306;2023-03-11T06:48:40;4.27;;;3.10;;
10315;SDS011;5203;48.976;8.306;2023-03-11T06:51:05;4.87;;;2.93;;
10315;SDS011;5203;48.976;8.306;2023-03-11T06:53:31;3.33;;;2.77;;
10315;SDS011;5203;48.976;8.306;2023-03-11T06:58:24;6.83;;;2.80;;
10315;SDS011;5203;48.976;8.306;2023-03-11T07:00:51;7.97;;;2.97;;
10315;SDS011;5203;48.976;8.306;2023-03-11T07:03:16;3.47;;;2.77;;
10315;SDS011;5203;48.976;8.306;2023-03-11T07:05:42;3.30;;;2.53;;
10315;SDS011;5203;48.976;8.306;2023-03-11T07:08:08;3.50;;;3.07;;
10315;SDS011;5203;48.976;8.306;2023-03-11T07:10:33;4.60;;;2.67;;
10315;SDS011;5203;48.976;8.306;2023-03-11T07:12:59;3.97;;;2.50;;
10315;SDS011;5203;48.976;8.306;2023-03-11T07:15:25;4.67;;;2.80;;
10315;SDS011;5203;48.976;8.306;2023-03-11T07:17:51;5.30;;;2.80;;
10315;SDS011;5203;48.976;8.306;2023-03-11T07:20:16;4.50;;;2.43;;
10315;SDS011;5203;48.976;8.306;2023-03-11T07:22:43;7.70;;;2.87;;
10315;SDS011;5203;48.976;8.306;2023-03-11T07:25:09;6.27;;;2.93;;
10315;SDS011;5203;48.976;8.306;2023-03-11T07:27:34;6.80;;;3.63;;
10315;SDS011;5203;48.976;8.306;2023-03-11T07:30:01;5.93;;;3.30;;
10315;SDS011;5203;48.976;8.306;2023-03-11T07:32:27;5.30;;;3.37;;
10315;SDS011;5203;48.976;8.306;2023-03-11T07:34:53;7.37;;;2.97;;
10315;SDS011;5203;48.976;8.306;2023-03-11T07:37:19;5.33;;;3.10;;
10315;SDS011;5203;48.976;8.306;2023-03-11T07:39:44;4.60;;;2.90;;
10315;SDS011;5203;48.976;8.306;2023-03-11T07:42:10;3.90;;;2.63;;
10315;SDS011;5203;48.976;8.306;2023-03-11T07:44:36;5.03;;;3.10;;
10315;SDS011;5203;48.976;8.306;2023-03-11T07:47:03;5.30;;;3.27;;
10315;SDS011;5203;48.976;8.306;2023-03-11T07:49:31;4.57;;;2.70;;
10315;SDS011;5203;48.976;8.306;2023-03-11T07:51:57;4.50;;;2.60;;
10315;SDS011;5203;48.976;8.306;2023-03-11T07:54:22;2.60;;;2.30;;
10315;SDS011;5203;48.976;8.306;2023-03-11T07:56:48;4.83;;;2.50;;
10315;SDS011;5203;48.976;8.306;2023-03-11T07:59:14;5.13;;;1.80;;
10315;SDS011;5203;48.976;8.306;2023-03-11T08:01:39;4.03;;;2.50;;
10315;SDS011;5203;48.976;8.306;2023-03-11T08:04:11;4.53;;;2.03;;
10315;SDS011;5203;48.976;8.306;2023-03-11T08:06:37;6.17;;;2.67;;
10315;SDS011;5203;48.976;8.306;2023-03-11T08:09:06;7.53;;;2.40;;
10315;SDS011;5203;48.976;8.306;2023-03-11T08:11:33;7.60;;;2.63;;
10315;SDS011;5203;48.976;8.306;2023-03-11T08:13:59;4.63;;;2.80;;
10315;SDS011;5203;48.976;8.306;2023-03-11T08:16:25;3.57;;;2.03;;
10315;SDS011;5203;48.976;8.306;2023-03-11T08:18:51;5.87;;;2.77;;
10315;SDS011;5203;48.976;8.306;2023-03-11T08:21:22;2.70;;;2.00;;
10315;SDS011;5203;48.976;8.306;2023-03-11T08:23:49;4.97;;;2.50;;
10315;SDS011;5203;48.976;8.306;2023-03-11T08:26:17;6.17;;;2.40;;
10315;SDS011;5203;48.976;8.306;2023-03-11T08:28:44;5.60;;;2.13;;
10315;SDS011;5203;48.976;8.306;2023-03-11T08:31:21;4.60;;;2.27;;
10315;SDS011;5203;48.976;8.306;2023-03-11T08:33:56;3.80;;;2.20;;
10315;SDS011;5203;48.976;8.306;2023-03-11T08:36:26;3.70;;;2.43;;
10315;SDS011;5203;48.976;8.306;2023-03-11T08:38:52;3.10;;;2.20;;
10315;SDS011;5203;48.976;8.306;2023-03-11T08:41:18;4.57;;;2.10;;
10315;SDS011;5203;48.976;8.306;2023-03-11T08:43:44;4.77;;;2.20;;
10315;SDS011;5203;48.976;8.306;2023-03-11T08:46:13;4.00;;;2.40;;
10315;SDS011;5203;48.976;8.306;2023-03-11T08:48:49;5.87;;;2.10;;
10315;SDS011;5203;48.976;8.306;2023-03-11T08:51:16;3.93;;;2.37;;
10315;SDS011;5203;48.976;8.306;2023-03-11T08:53:42;3.23;;;2.20;;
10315;SDS011;5203;48.976;8.306;2023-03-11T08:56:08;3.00;;;2.20;;
10315;SDS011;5203;48.976;8.306;2023-03-11T08:58:34;5.23;;;2.10;;
10315;SDS011;5203;48.976;8.306;2023-03-11T09:01:00;2.93;;;2.17;;
10315;SDS011;5203;48.976;8.306;2023-03-11T09:03:25;5.83;;;2.60;;
10315;SDS011;5203;48.976;8.306;2023-03-11T09:05:58;4.97;;;2.40;;
10315;SDS011;5203;48.976;8.306;2023-03-11T09:08:25;7.83;;;2.90;;
10315;SDS011;5203;48.976;8.306;2023-03-11T09:10:52;6.17;;;2.53;;
10315;SDS011;5203;48.976;8.306;2023-03-11T09:13:17;6.17;;;2.67;;
10315;SDS011;5203;48.976;8.306;2023-03-11T09:15:43;7.30;;;2.53;;
10315;SDS011;5203;48.976;8.306;2023-03-11T09:18:11;6.57;;;2.63;;
10315;SDS011;5203;48.976;8.306;2023-03-11T09:20:37;9.67;;;2.60;;
10315;SDS011;5203;48.976;8.306;2023-03-11T09:23:04;3.50;;;2.20;;
10315;SDS011;5203;48.976;8.306;2023-03-11T09:25:32;5.87;;;2.13;;
10315;SDS011;5203;48.976;8.306;2023-03-11T09:27:57;4.03;;;2.17;;
10315;SDS011;5203;48.976;8.306;2023-03-11T09:30:23;2.77;;;2.10;;
10315;SDS011;5203;48.976;8.306;2023-03-11T09:32:49;4.47;;;2.60;;
10315;SDS011;5203;48.976;8.306;2023-03-11T09:35:14;3.67;;;2.30;;
10315;SDS011;5203;48.976;8.306;2023-03-11T09:37:40;4.60;;;2.67;;
10315;SDS011;5203;48.976;8.306;2023-03-11T09:40:06;4.40;;;2.30;;
10315;SDS011;5203;48.976;8.306;2023-03-11T09:45:29;5.50;;;2.57;;
10315;SDS011;5203;48.976;8.306;2023-03-11T09:54:02;4.03;;;2.17;;
10315;SDS011;5203;48.976;8.306;2023-03-11T09:56:10;3.37;;;1.57;;
10315;SDS011;5203;48.976;8.306;2023-03-11T09:58:40;4.17;;;1.90;;
10315;SDS011;5203;48.976;8.306;2023-03-11T10:01:20;4.20;;;1.63;;
10315;SDS011;5203;48.976;8.306;2023-03-11T10:03:51;9.23;;;2.37;;
10315;SDS011;5203;48.976;8.306;2023-03-11T10:06:21;4.67;;;2.70;;
10315;SDS011;5203;48.976;8.306;2023-03-11T10:09:29;14.87;;;3.93;;
10315;SDS011;5203;48.976;8.306;2023-03-11T10:19:54;5.43;;;2.50;;
10315;SDS011;5203;48.976;8.306;2023-03-11T10:30:32;4.83;;;2.33;;
10315;SDS011;5203;48.976;8.306;2023-03-11T10:33:13;5.50;;;2.10;;
10315;SDS011;5203;48.976;8.306;2023-03-11T10:35:52;3.43;;;2.33;;
10315;SDS011;5203;48.976;8.306;2023-03-11T10:38:22;4.63;;;3.40;;
10315;SDS011;5203;48.976;8.306;2023-03-11T10:40:58;6.37;;;2.57;;
10315;SDS011;5203;48.976;8.306;2023-03-11T10:43:44;4.77;;;2.97;;
10315;SDS011;5203;48.976;8.306;2023-03-11T10:46:30;5.70;;;3.10;;
10315;SDS011;5203;48.976;8.306;2023-03-11T10:48:55;6.73;;;3.70;;
10315;SDS011;5203;48.976;8.306;2023-03-11T10:51:31;3.90;;;1.83;;
10315;SDS011;5203;48.976;8.306;2023-03-11T10:53:59;5.13;;;1.80;;
10315;SDS011;5203;48.976;8.306;2023-03-11T10:56:44;2.67;;;2.10;;
10315;SDS011;5203;48.976;8.306;2023-03-11T10:59:21;7.77;;;5.20;;
10315;SDS011;5203;48.976;8.306;2023-03-11T11:05:29;4.63;;;1.90;;
10315;SDS011;5203;48.976;8.306;2023-03-11T11:10:36;5.73;;;3.00;;
10315;SDS011;5203;48.976;8.306;2023-03-11T11:21:17;6.10;;;2.40;;
10315;SDS011;5203;48.976;8.306;2023-03-11T11:29:35;4.03;;;2.37;;
10315;SDS011;5203;48.976;8.306;2023-03-11T11:32:19;5.07;;;2.10;;
10315;SDS011;5203;48.976;8.306;2023-03-11T11:34:55;3.27;;;2.07;;
10315;SDS011;5203;48.976;8.306;2023-03-11T11:37:26;5.70;;;2.10;;
10315;SDS011;5203;48.976;8.306;2023-03-11T11:39:58;5.10;;;1.97;;
10315;SDS011;5203;48.976;8.306;2023-03-11T11:42:35;5.27;;;2.50;;
10315;SDS011;5203;48.976;8.306;2023-03-11T11:45:13;7.20;;;2.90;;
10315;SDS011;5203;48.976;8.306;2023-03-11T11:47:47;3.97;;;2.40;;
10315;SDS011;5203;48.976;8.306;2023-03-11T11:56:02;3.10;;;1.90;;
10315;SDS011;5203;48.976;8.306;2023-03-11T11:58:28;3.80;;;2.00;;
10315;SDS011;5203;48.976;8.306;2023-03-11T12:09:12;4.97;;;2.03;;
10315;SDS011;5203;48.976;8.306;2023-03-11T12:11:53;2.97;;;1.70;;
10315;SDS011;5203;48.976;8.306;2023-03-11T12:14:24;3.67;;;2.30;;
10315;SDS011;5203;48.976;8.306;2023-03-11T12:17:06;6.77;;;2.17;;
10315;SDS011;5203;48.976;8.306;2023-03-11T12:19:51;3.53;;;2.33;;
10315;SDS011;5203;48.976;8.306;2023-03-11T12:30:45;4.57;;;2.50;;
10315;SDS011;5203;48.976;8.306;2023-03-11T12:35:54;2.53;;;2.00;;
10315;SDS011;5203;48.976;8.306;2023-03-11T12:46:11;2.47;;;2.27;;
10315;SDS011;5203;48.976;8.306;2023-03-11T12:48:44;2.97;;;2.07;;
10315;SDS011;5203;48.976;8.306;2023-03-11T12:53:51;3.10;;;2.27;;
10315;SDS011;5203;48.976;8.306;2023-03-11T13:01:29;3.53;;;2.20;;
10315;SDS011;5203;48.976;8.306;2023-03-11T13:04:13;2.83;;;2.10;;
10315;SDS011;5203;48.976;8.306;2023-03-11T13:09:36;3.13;;;2.13;;
10315;SDS011;5203;48.976;8.306;2023-03-11T13:12:02;2.27;;;1.83;;
10315;SDS011;5203;48.976;8.306;2023-03-11T13:14:48;3.23;;;2.10;;
10315;SDS011;5203;48.976;8.306;2023-03-11T13:17:56;5.00;;;1.90;;
10315;SDS011;5203;48.976;8.306;2023-03-11T13:33:54;2.67;;;2.13;;
10315;SDS011;5203;48.976;8.306;2023-03-11T13:42:26;2.30;;;2.10;;
10315;SDS011;5203;48.976;8.306;2023-03-11T13:45:00;2.53;;;2.33;;
10315;SDS011;5203;48.976;8.306;2023-03-11T13:47:29;8.87;;;4.93;;
10315;SDS011;5203;48.976;8.306;2023-03-11T13:50:07;11.23;;;3.07;;
10315;SDS011;5203;48.976;8.306;2023-03-11T13:52:46;3.57;;;2.40;;
10315;SDS011;5203;48.976;8.306;2023-03-11T13:57:54;3.80;;;2.70;;
10315;SDS011;5203;48.976;8.306;2023-03-11T14:00:22;3.43;;;2.70;;
10315;SDS011;5203;48.976;8.306;2023-03-11T14:02:50;3.10;;;2.20;;
10315;SDS011;5203;48.976;8.306;2023-03-11T14:08:19;2.10;;;1.90;;
10315;SDS011;5203;48.976;8.306;2023-03-11T14:13:20;3.60;;;2.17;;
10315;SDS011;5203;48.976;8.306;2023-03-11T14:16:03;3.47;;;2.30;;
10315;SDS011;5203;48.976;8.306;2023-03-11T14:20:59;3.43;;;2.40;;
10315;SDS011;5203;48.976;8.306;2023-03-11T14:23:32;6.00;;;2.60;;
10315;SDS011;5203;48.976;8.306;2023-03-11T14:26:00;2.67;;;2.30;;
10315;SDS011;5203;48.976;8.306;2023-03-11T14:28:30;5.73;;;2.60;;
10315;SDS011;5203;48.976;8.306;2023-03-11T14:30:59;3.37;;;2.43;;
10315;SDS011;5203;48.976;8.306;2023-03-11T14:33:26;4.93;;;2.60;;
10315;SDS011;5203;48.976;8.306;2023-03-11T14:35:56;3.33;;;2.13;;
10315;SDS011;5203;48.976;8.306;2023-03-11T14:38:25;2.83;;;2.17;;
10315;SDS011;5203;48.976;8.306;2023-03-11T14:40:56;2.60;;;2.30;;
10315;SDS011;5203;48.976;8.306;2023-03-11T14:43:30;2.67;;;2.47;;
10315;SDS011;5203;48.976;8.306;2023-03-11T14:45:58;3.17;;;2.30;;
10315;SDS011;5203;48.976;8.306;2023-03-11T14:48:29;3.10;;;2.50;;
10315;SDS011;5203;48.976;8.306;2023-03-11T14:51:01;10.13;;;3.93;;
10315;SDS011;5203;48.976;8.306;2023-03-11T14:53:34;3.70;;;2.63;;
10315;SDS011;5203;48.976;8.306;2023-03-11T14:56:07;3.70;;;2.97;;
10315;SDS011;5203;48.976;8.306;2023-03-11T14:58:39;3.73;;;2.33;;
10315;SDS011;5203;48.976;8.306;2023-03-11T15:03:53;11.60;;;10.30;;
10315;SDS011;5203;48.976;8.306;2023-03-11T15:06:33;24.73;;;19.67;;
10315;SDS011;5203;48.976;8.306;2023-03-11T15:09:02;30.57;;;23.70;;
10315;SDS011;5203;48.976;8.306;2023-03-11T15:14:59;4.00;;;3.60;;
10315;SDS011;5203;48.976;8.306;2023-03-11T15:17:25;2.77;;;2.57;;
10315;SDS011;5203;48.976;8.306;2023-03-11T15:19:55;3.10;;;2.20;;
10315;SDS011;5203;48.976;8.306;2023-03-11T15:25:00;4.00;;;2.70;;
10315;SDS011;5203;48.976;8.306;2023-03-11T15:29:59;3.17;;;2.70;;
10315;SDS011;5203;48.976;8.306;2023-03-11T15:37:37;5.20;;;2.40;;
10315;SDS011;5203;48.976;8.306;2023-03-11T15:40:11;3.23;;;2.30;;
10315;SDS011;5203;48.976;8.306;2023-03-11T15:42:43;3.93;;;2.43;;
10315;SDS011;5203;48.976;8.306;2023-03-11T15:45:14;4.37;;;2.10;;
10315;SDS011;5203;48.976;8.306;2023-03-11T15:47:41;4.33;;;2.10;;
10315;SDS011;5203;48.976;8.306;2023-03-11T15:50:19;15.80;;;4.10;;
10315;SDS011;5203;48.976;8.306;2023-03-11T15:52:48;4.37;;;2.80;;
10315;SDS011;5203;48.976;8.306;2023-03-11T15:55:15;3.83;;;2.60;;
10315;SDS011;5203;48.976;8.306;2023-03-11T15:57:43;7.93;;;2.90;;
10315;SDS011;5203;48.976;8.306;2023-03-11T16:00:21;4.00;;;2.13;;
10315;SDS011;5203;48.976;8.306;2023-03-11T16:02:48;3.70;;;2.20;;
10315;SDS011;5203;48.976;8.306;2023-03-11T16:05:16;4.07;;;2.23;;
10315;SDS011;5203;48.976;8.306;2023-03-11T16:07:44;3.30;;;2.40;;
10315;SDS011;5203;48.976;8.306;2023-03-11T16:10:11;3.03;;;2.20;;
10315;SDS011;5203;48.976;8.306;2023-03-11T16:12:38;4.20;;;2.23;;
10315;SDS011;5203;48.976;8.306;2023-03-11T16:15:09;9.90;;;2.73;;
10315;SDS011;5203;48.976;8.306;2023-03-11T16:17:40;8.17;;;2.70;;
10315;SDS011;5203;48.976;8.306;2023-03-11T16:20:06;5.27;;;2.37;;
10315;SDS011;5203;48.976;8.306;2023-03-11T16:22:33;4.20;;;2.20;;
10315;SDS011;5203;48.976;8.306;2023-03-11T16:25:01;4.63;;;2.50;;
10315;SDS011;5203;48.976;8.306;2023-03-11T16:27:27;5.27;;;2.33;;
10315;SDS011;5203;48.976;8.306;2023-03-11T16:29:54;3.90;;;2.50;;
10315;SDS011;5203;48.976;8.306;2023-03-11T16:32:20;5.47;;;2.33;;
10315;SDS011;5203;48.976;8.306;2023-03-11T16:34:45;4.17;;;2.53;;
10315;SDS011;5203;48.976;8.306;2023-03-11T16:37:14;3.23;;;2.40;;
10315;SDS011;5203;48.976;8.306;2023-03-11T16:39:44;4.97;;;2.43;;
10315;SDS011;5203;48.976;8.306;2023-03-11T16:42:12;4.20;;;2.50;;
10315;SDS011;5203;48.976;8.306;2023-03-11T16:44:38;5.57;;;3.47;;
10315;SDS011;5203;48.976;8.306;2023-03-11T16:47:04;4.27;;;3.10;;
10315;SDS011;5203;48.976;8.306;2023-03-11T16:49:30;6.47;;;5.27;;
10315;SDS011;5203;48.976;8.306;2023-03-11T16:51:55;6.53;;;2.57;;
10315;SDS011;5203;48.976;8.306;2023-03-11T16:54:21;4.13;;;2.60;;
10315;SDS011;5203;48.976;8.306;2023-03-11T16:56:47;9.30;;;2.37;;
10315;SDS011;5203;48.976;8.306;2023-03-11T16:59:12;4.80;;;2.37;;
10315;SDS011;5203;48.976;8.306;2023-03-11T17:01:38;5.47;;;2.23;;
10315;SDS011;5203;48.976;8.306;2023-03-11T17:04:04;2.93;;;2.57;;
10315;SDS011;5203;48.976;8.306;2023-03-11T17:06:31;5.70;;;2.50;;
10315;SDS011;5203;48.976;8.306;2023-03-11T17:08:57;5.73;;;2.73;;
10315;SDS011;5203;48.976;8.306;2023-03-11T17:11:22;5.07;;;2.77;;
10315;SDS011;5203;48.976;8.306;2023-03-11T17:13:52;3.73;;;3.03;;
10315;SDS011;5203;48.976;8.306;2023-03-11T17:16:18;5.17;;;3.20;;
10315;SDS011;5203;48.976;8.306;2023-03-11T17:18:44;5.17;;;2.43;;
10315;SDS011;5203;48.976;8.306;2023-03-11T17:21:11;6.10;;;2.97;;
10315;SDS011;5203;48.976;8.306;2023-03-11T17:23:38;6.13;;;2.80;;
10315;SDS011;5203;48.976;8.306;2023-03-11T17:26:11;5.03;;;3.03;;
10315;SDS011;5203;48.976;8.306;2023-03-11T17:28:39;4.70;;;3.03;;